createdAt,value
2022-10-01T00:02:06.250Z,6.90
2022-10-01T00:04:36.048Z,6.90
2022-10-01T00:07:04.877Z,6.90
2022-10-01T00:09:34.872Z,6.80
2022-10-01T00:12:01.616Z,6.80
2022-10-01T00:14:30.156Z,6.80
2022-10-01T00:16:57.621Z,6.80
2022-10-01T00:19:24.661Z,6.80
2022-10-01T00:21:51.474Z,6.80
2022-10-01T00:24:18.697Z,6.80
2022-10-01T00:26:45.665Z,6.90
2022-10-01T00:29:14.726Z,6.90
2022-10-01T00:31:41.872Z,6.90
2022-10-01T00:34:12.302Z,7.00
2022-10-01T00:36:39.033Z,7.10
2022-10-01T00:39:05.761Z,7.10
2022-10-01T00:41:34.651Z,7.10
2022-10-01T00:44:22.688Z,7.10
2022-10-01T00:46:50.067Z,7.10
2022-10-01T00:49:20.218Z,7.20
2022-10-01T00:51:58.150Z,7.20
2022-10-01T00:54:52.740Z,7.30
2022-10-01T00:57:24.137Z,7.30
2022-10-01T00:59:53.202Z,7.20
2022-10-01T01:02:20.472Z,7.30
2022-10-01T01:04:48.171Z,7.30
2022-10-01T01:07:15.890Z,7.30
2022-10-01T01:09:46.951Z,7.30
2022-10-01T01:12:26.501Z,7.30
2022-10-01T01:15:20.031Z,7.30
2022-10-01T01:18:21.206Z,7.30
2022-10-01T01:21:02.785Z,7.30
2022-10-01T01:23:57.434Z,7.30
2022-10-01T01:26:28.631Z,7.20
2022-10-01T01:29:21.004Z,7.20
2022-10-01T01:31:48.713Z,7.20
2022-10-01T01:34:21.745Z,7.20
2022-10-01T01:36:55.434Z,7.20
2022-10-01T01:39:26.603Z,7.20
2022-10-01T01:41:58.295Z,7.20
2022-10-01T01:44:30.640Z,7.30
2022-10-01T01:46:59.084Z,7.30
2022-10-01T01:49:25.916Z,7.40
2022-10-01T01:51:59.735Z,7.40
2022-10-01T01:54:26.649Z,7.50
2022-10-01T01:56:56.337Z,7.60
2022-10-01T01:59:24.077Z,7.60
2022-10-01T02:01:51.251Z,7.70
2022-10-01T02:04:27.204Z,7.70
2022-10-01T02:06:53.966Z,7.80
2022-10-01T02:09:23.480Z,7.90
2022-10-01T02:12:15.444Z,8.00
2022-10-01T02:14:49.202Z,8.10
2022-10-01T02:17:32.500Z,8.10
2022-10-01T02:20:07.476Z,8.20
2022-10-01T02:22:50.998Z,8.20
2022-10-01T02:25:20.094Z,8.20
2022-10-01T02:28:01.522Z,8.30
2022-10-01T02:30:32.209Z,8.30
2022-10-01T02:33:01.008Z,8.30
2022-10-01T02:35:34.229Z,8.40
2022-10-01T02:38:04.240Z,8.40
2022-10-01T02:40:34.613Z,8.40
2022-10-01T02:43:08.993Z,8.40
2022-10-01T02:45:40.356Z,8.40
2022-10-01T02:48:11.049Z,8.40
2022-10-01T02:50:53.736Z,8.40
2022-10-01T02:53:37.366Z,8.40
2022-10-01T02:56:05.152Z,8.40
2022-10-01T02:58:32.000Z,8.40
2022-10-01T03:00:59.012Z,8.40
2022-10-01T03:03:26.139Z,8.30
2022-10-01T03:05:53.125Z,8.30
2022-10-01T03:08:20.123Z,8.30
2022-10-01T03:10:47.368Z,8.20
2022-10-01T03:13:14.771Z,8.20
2022-10-01T03:15:41.645Z,8.20
2022-10-01T03:18:08.372Z,8.20
2022-10-01T03:20:35.122Z,8.20
2022-10-01T03:23:01.907Z,8.20
2022-10-01T03:25:28.630Z,8.20
2022-10-01T03:27:55.722Z,8.10
2022-10-01T03:30:22.520Z,8.10
2022-10-01T03:32:49.304Z,8.10
2022-10-01T03:35:16.649Z,8.10
2022-10-01T03:37:43.361Z,8.10
2022-10-01T03:40:10.468Z,8.10
2022-10-01T03:42:37.205Z,8.10
2022-10-01T03:45:04.411Z,8.10
2022-10-01T03:47:31.838Z,8.10
2022-10-01T03:50:00.126Z,8.10
2022-10-01T03:52:26.947Z,8.10
2022-10-01T03:54:53.801Z,8.10
2022-10-01T03:57:20.653Z,8.10
2022-10-01T03:59:47.405Z,8.20
2022-10-01T04:02:14.264Z,8.20
2022-10-01T04:04:41.150Z,8.20
2022-10-01T04:07:07.925Z,8.20
2022-10-01T04:09:34.677Z,8.20
2022-10-01T04:12:01.837Z,8.20
2022-10-01T04:14:28.611Z,8.20
2022-10-01T04:16:55.437Z,8.20
2022-10-01T04:19:22.651Z,8.20
2022-10-01T04:21:49.620Z,8.20
2022-10-01T04:24:16.369Z,8.30
2022-10-01T04:26:43.069Z,8.30
2022-10-01T04:29:10.064Z,8.30
2022-10-01T04:31:37.211Z,8.30
2022-10-01T04:34:04.619Z,8.30
2022-10-01T04:36:31.609Z,8.30
2022-10-01T04:39:02.092Z,8.20
2022-10-01T04:41:31.123Z,8.20
2022-10-01T04:44:01.365Z,8.10
2022-10-01T04:46:30.032Z,8.10
2022-10-01T04:48:56.948Z,8.10
2022-10-01T04:51:23.851Z,8.00
2022-10-01T04:53:50.737Z,7.90
2022-10-01T04:56:17.514Z,7.90
2022-10-01T04:58:44.364Z,7.90
2022-10-01T05:01:11.135Z,7.90
2022-10-01T05:03:37.882Z,7.90
2022-10-01T05:06:04.710Z,7.90
2022-10-01T05:08:31.511Z,7.90
2022-10-01T05:11:00.218Z,7.90
2022-10-01T05:13:29.909Z,7.90
2022-10-01T05:15:56.839Z,8.00
2022-10-01T05:18:23.857Z,8.00
2022-10-01T05:20:50.628Z,8.10
2022-10-01T05:23:17.506Z,8.10
2022-10-01T05:25:45.068Z,8.20
2022-10-01T05:28:11.983Z,8.20
2022-10-01T05:30:39.055Z,8.30
2022-10-01T05:33:06.328Z,8.30
2022-10-01T05:35:33.421Z,8.30
2022-10-01T05:38:02.642Z,8.30
2022-10-01T05:40:30.434Z,8.30
2022-10-01T05:42:58.504Z,8.40
2022-10-01T05:45:27.629Z,8.40
2022-10-01T05:48:02.391Z,8.50
2022-10-01T05:50:32.950Z,8.50
2022-10-01T05:53:01.315Z,8.60
2022-10-01T05:55:34.289Z,8.60
2022-10-01T05:58:11.880Z,8.60
2022-10-01T06:00:40.302Z,8.70
2022-10-01T06:03:07.742Z,8.70
2022-10-01T06:05:36.031Z,8.80
2022-10-01T06:08:06.693Z,8.90
2022-10-01T06:10:33.837Z,8.90
2022-10-01T06:13:02.650Z,8.90
2022-10-01T06:15:34.950Z,9.00
2022-10-01T06:18:04.041Z,9.00
2022-10-01T06:20:30.945Z,9.00
2022-10-01T06:22:58.424Z,9.10
2022-10-01T06:25:29.599Z,9.10
2022-10-01T06:28:00.614Z,9.20
2022-10-01T06:30:29.577Z,9.20
2022-10-01T06:33:07.503Z,9.30
2022-10-01T06:35:35.907Z,9.30
2022-10-01T06:38:03.062Z,9.40
2022-10-01T06:40:31.863Z,9.40
2022-10-01T06:42:59.009Z,9.50
2022-10-01T06:45:27.569Z,9.50
2022-10-01T06:47:55.875Z,9.50
2022-10-01T06:50:23.952Z,9.60
2022-10-01T06:52:51.923Z,9.60
2022-10-01T06:55:21.131Z,9.70
2022-10-01T06:57:50.233Z,9.70
2022-10-01T07:00:17.415Z,9.70
2022-10-01T07:02:44.556Z,9.70
2022-10-01T07:05:12.443Z,9.70
2022-10-01T07:07:39.755Z,9.60
2022-10-01T07:10:09.093Z,9.60
2022-10-01T07:12:37.542Z,9.60
2022-10-01T07:15:06.088Z,9.60
2022-10-01T07:17:33.216Z,9.60
2022-10-01T07:20:01.674Z,9.60
2022-10-01T07:22:28.504Z,9.50
2022-10-01T07:24:55.256Z,9.50
2022-10-01T07:27:22.208Z,9.50
2022-10-01T07:29:49.164Z,9.50
2022-10-01T07:32:16.851Z,9.50
2022-10-01T07:34:43.944Z,9.60
2022-10-01T07:37:10.986Z,9.60
2022-10-01T07:39:37.792Z,9.60
2022-10-01T07:42:04.887Z,9.70
2022-10-01T07:44:31.739Z,9.70
2022-10-01T07:46:58.690Z,9.70
2022-10-01T07:49:25.976Z,9.60
2022-10-01T07:51:54.931Z,9.60
2022-10-01T07:54:22.638Z,9.60
2022-10-01T07:56:52.911Z,9.50
2022-10-01T07:59:19.757Z,9.50
2022-10-01T08:01:53.975Z,9.50
2022-10-01T08:04:47.770Z,9.50
2022-10-01T08:07:15.312Z,9.40
2022-10-01T08:09:42.034Z,9.40
2022-10-01T08:12:08.911Z,9.30
2022-10-01T08:14:35.810Z,9.30
2022-10-01T08:17:02.844Z,9.30
2022-10-01T08:19:30.124Z,9.30
2022-10-01T08:21:56.880Z,9.30
2022-10-01T08:24:23.741Z,9.30
2022-10-01T08:26:57.653Z,9.30
2022-10-01T08:29:24.652Z,9.40
2022-10-01T08:31:53.590Z,9.40
2022-10-01T08:34:20.594Z,9.40
2022-10-01T08:36:51.691Z,9.40
2022-10-01T08:39:18.693Z,9.40
2022-10-01T08:41:57.831Z,9.40
2022-10-01T08:44:32.672Z,9.50
2022-10-01T08:47:08.351Z,9.50
2022-10-01T08:49:48.189Z,9.50
2022-10-01T08:52:26.758Z,9.50
2022-10-01T08:55:02.354Z,9.60
2022-10-01T08:57:32.807Z,9.60
2022-10-01T09:00:02.775Z,9.60
2022-10-01T09:02:40.205Z,9.60
2022-10-01T09:05:07.502Z,9.60
2022-10-01T09:07:50.642Z,9.60
2022-10-01T09:10:52.640Z,9.60
2022-10-01T09:13:39.826Z,9.60
2022-10-01T09:16:06.788Z,9.60
2022-10-01T09:19:01.311Z,9.60
2022-10-01T09:21:57.458Z,9.70
2022-10-01T09:24:45.074Z,9.70
2022-10-01T09:27:14.643Z,9.70
2022-10-01T09:29:51.102Z,9.70
2022-10-01T09:32:23.836Z,9.70
2022-10-01T09:34:52.395Z,9.70
2022-10-01T09:37:23.468Z,9.70
2022-10-01T09:40:22.403Z,9.70
2022-10-01T09:42:49.696Z,9.70
2022-10-01T09:45:20.643Z,9.70
2022-10-01T09:47:51.448Z,9.70
2022-10-01T09:50:25.219Z,9.70
2022-10-01T09:52:53.731Z,9.70
2022-10-01T09:55:42.746Z,9.70
2022-10-01T09:58:15.062Z,9.70
2022-10-01T10:00:43.901Z,9.70
2022-10-01T10:03:21.187Z,9.70
2022-10-01T10:05:49.415Z,9.70
2022-10-01T10:08:29.086Z,9.80
2022-10-01T10:11:06.562Z,9.70
2022-10-01T10:13:41.640Z,9.70
2022-10-01T10:16:15.583Z,9.80
2022-10-01T10:18:48.607Z,9.80
2022-10-01T10:21:19.528Z,9.90
2022-10-01T10:23:52.734Z,9.90
2022-10-01T10:26:29.525Z,9.90
2022-10-01T10:28:56.452Z,9.90
2022-10-01T10:31:28.296Z,9.90
2022-10-01T10:34:20.482Z,9.90
2022-10-01T10:36:48.311Z,9.90
2022-10-01T10:39:30.401Z,10.00
2022-10-01T10:41:59.771Z,10.00
2022-10-01T10:44:31.992Z,10.00
2022-10-01T10:47:03.503Z,10.00
2022-10-01T10:49:32.854Z,10.10
2022-10-01T10:52:01.959Z,10.10
2022-10-01T10:54:37.637Z,10.20
2022-10-01T10:57:16.336Z,10.20
2022-10-01T10:59:54.670Z,10.20
2022-10-01T11:02:23.867Z,10.20
2022-10-01T11:04:51.061Z,10.20
2022-10-01T11:07:29.084Z,10.20
2022-10-01T11:10:11.529Z,10.30
2022-10-01T11:12:56.344Z,10.30
2022-10-01T11:15:47.019Z,10.30
2022-10-01T11:18:56.039Z,10.30
2022-10-01T11:21:25.612Z,10.30
2022-10-01T11:24:32.954Z,10.40
2022-10-01T11:27:36.277Z,10.40
2022-10-01T11:30:06.195Z,10.40
2022-10-01T11:32:46.107Z,10.50
2022-10-01T11:35:21.510Z,10.50
2022-10-01T11:38:10.644Z,10.50
2022-10-01T11:40:42.767Z,10.50
2022-10-01T11:43:21.541Z,10.50
2022-10-01T11:45:54.489Z,10.60
2022-10-01T11:48:41.395Z,10.60
2022-10-01T11:51:16.380Z,10.60
2022-10-01T11:53:54.463Z,10.70
2022-10-01T11:56:52.117Z,10.80
2022-10-01T11:59:31.122Z,10.90
2022-10-01T12:02:17.137Z,11.00
2022-10-01T12:04:58.130Z,11.10
2022-10-01T12:07:44.109Z,11.10
2022-10-01T12:10:54.897Z,11.10
2022-10-01T12:13:36.520Z,11.10
2022-10-01T12:16:15.138Z,11.20
2022-10-01T12:19:03.063Z,11.20
2022-10-01T12:21:37.060Z,11.30
2022-10-01T12:24:11.409Z,11.30
2022-10-01T12:27:02.786Z,11.30
2022-10-01T12:29:51.742Z,11.40
2022-10-01T12:32:56.355Z,11.40
2022-10-01T12:35:52.518Z,11.40
2022-10-01T12:38:44.225Z,11.40
2022-10-01T12:41:23.257Z,11.40
2022-10-01T12:44:27.535Z,11.40
2022-10-01T12:47:20.664Z,11.40
2022-10-01T12:49:59.522Z,11.40
2022-10-01T12:52:53.795Z,11.40
2022-10-01T12:55:30.705Z,11.40
2022-10-01T12:58:44.169Z,11.40
2022-10-01T13:01:37.485Z,11.40
2022-10-01T13:04:19.295Z,11.50
2022-10-01T13:07:28.260Z,11.60
2022-10-01T13:10:03.780Z,11.60
2022-10-01T13:12:51.319Z,11.60
2022-10-01T13:15:22.276Z,11.70
2022-10-01T13:17:58.212Z,11.70
2022-10-01T13:20:41.024Z,11.70
2022-10-01T13:23:21.166Z,11.80
2022-10-01T13:25:58.911Z,11.80
2022-10-01T13:28:50.716Z,11.90
2022-10-01T13:31:31.389Z,11.90
2022-10-01T13:33:58.275Z,12.00
2022-10-01T13:36:33.948Z,12.00
2022-10-01T13:39:01.941Z,12.10
2022-10-01T13:41:34.503Z,12.10
2022-10-01T13:44:07.872Z,12.10
2022-10-01T13:46:52.225Z,12.10
2022-10-01T13:49:28.622Z,12.10
2022-10-01T13:51:56.401Z,12.10
2022-10-01T13:54:36.457Z,12.10
2022-10-01T13:57:22.708Z,12.10
2022-10-01T13:59:59.315Z,12.10
2022-10-01T14:02:36.619Z,12.10
2022-10-01T14:05:23.368Z,12.10
2022-10-01T14:07:55.651Z,12.10
2022-10-01T14:10:29.654Z,12.10
2022-10-01T14:13:17.341Z,12.10
2022-10-01T14:16:00.466Z,12.20
2022-10-01T14:18:34.304Z,12.40
2022-10-01T14:21:01.279Z,12.50
2022-10-01T14:23:36.139Z,12.70
2022-10-01T14:26:36.023Z,12.70
2022-10-01T14:29:23.127Z,12.80
2022-10-01T14:31:55.629Z,13.00
2022-10-01T14:34:33.519Z,13.10
2022-10-01T14:37:01.359Z,13.10
2022-10-01T14:39:29.568Z,13.20
2022-10-01T14:41:57.847Z,13.20
2022-10-01T14:44:41.826Z,13.30
2022-10-01T14:47:35.909Z,13.20
2022-10-01T14:50:19.540Z,13.20
2022-10-01T14:52:49.411Z,13.10
2022-10-01T14:55:21.027Z,13.10
2022-10-01T14:57:51.323Z,13.00
2022-10-01T15:00:21.714Z,13.00
2022-10-01T15:02:51.798Z,13.00
2022-10-01T15:05:33.982Z,13.00
2022-10-01T15:08:35.547Z,13.00
2022-10-01T15:11:06.870Z,13.00
2022-10-01T15:13:37.847Z,13.10
2022-10-01T15:16:11.604Z,13.10
2022-10-01T15:18:48.829Z,13.20
2022-10-01T15:21:20.987Z,13.20
2022-10-01T15:23:48.959Z,13.30
2022-10-01T15:26:27.335Z,13.30
2022-10-01T15:29:12.107Z,13.30
2022-10-01T15:31:39.579Z,13.30
2022-10-01T15:34:11.385Z,13.20
2022-10-01T15:36:39.187Z,13.20
2022-10-01T15:39:35.796Z,13.10
2022-10-01T15:42:26.570Z,13.10
2022-10-01T15:45:08.941Z,13.00
2022-10-01T15:47:39.939Z,13.00
2022-10-01T15:50:09.605Z,13.00
2022-10-01T15:52:50.497Z,13.00
2022-10-01T15:55:22.609Z,13.00
2022-10-01T15:58:06.742Z,13.00
2022-10-01T16:00:59.101Z,13.00
2022-10-01T16:03:33.950Z,12.90
2022-10-01T16:06:06.068Z,12.90
2022-10-01T16:08:39.319Z,12.90
2022-10-01T16:11:09.021Z,12.90
2022-10-01T16:13:39.163Z,12.90
2022-10-01T16:16:19.311Z,12.80
2022-10-01T16:18:54.066Z,12.80
2022-10-01T16:21:22.063Z,12.80
2022-10-01T16:23:53.723Z,12.80
2022-10-01T16:26:36.797Z,12.70
2022-10-01T16:29:22.187Z,12.70
2022-10-01T16:31:49.600Z,12.70
2022-10-01T16:34:17.563Z,12.70
2022-10-01T16:36:44.628Z,12.60
2022-10-01T16:39:13.742Z,12.70
2022-10-01T16:41:40.894Z,12.70
2022-10-01T16:44:11.859Z,12.70
2022-10-01T16:46:38.653Z,12.60
2022-10-01T16:49:09.413Z,12.60
2022-10-01T16:51:36.113Z,12.60
2022-10-01T16:54:03.642Z,12.50
2022-10-01T16:56:30.324Z,12.40
2022-10-01T16:58:57.212Z,12.20
2022-10-01T17:01:24.020Z,11.90
2022-10-01T17:03:50.737Z,11.70
2022-10-01T17:06:17.456Z,11.50
2022-10-01T17:08:44.165Z,11.40
2022-10-01T17:11:12.759Z,11.30
2022-10-01T17:13:39.681Z,11.30
2022-10-01T17:16:06.637Z,11.30
2022-10-01T17:18:33.425Z,11.30
2022-10-01T17:21:02.107Z,11.30
2022-10-01T17:23:28.798Z,11.40
2022-10-01T17:25:55.520Z,11.40
2022-10-01T17:28:23.331Z,11.40
2022-10-01T17:30:50.038Z,11.40
2022-10-01T17:33:19.316Z,11.40
2022-10-01T17:35:48.593Z,11.50
2022-10-01T17:38:15.891Z,11.50
2022-10-01T17:40:43.077Z,11.60
2022-10-01T17:43:11.010Z,11.60
2022-10-01T17:45:37.881Z,11.70
2022-10-01T17:48:04.613Z,11.80
2022-10-01T17:50:31.429Z,11.80
2022-10-01T17:52:59.488Z,11.80
2022-10-01T17:55:26.669Z,11.80
2022-10-01T17:57:53.710Z,11.80
2022-10-01T18:00:20.482Z,11.70
2022-10-01T18:02:47.212Z,11.70
2022-10-01T18:05:14.906Z,11.70
2022-10-01T18:07:42.140Z,11.70
2022-10-01T18:10:10.212Z,11.60
2022-10-01T18:12:36.896Z,11.60
2022-10-01T18:15:03.936Z,11.60
2022-10-01T18:17:32.262Z,11.60
2022-10-01T18:19:59.014Z,11.70
2022-10-01T18:22:26.552Z,11.70
2022-10-01T18:24:53.436Z,11.70
2022-10-01T18:27:20.123Z,11.70
2022-10-01T18:29:46.769Z,11.70
2022-10-01T18:32:16.331Z,11.70
2022-10-01T18:34:46.122Z,11.70
2022-10-01T18:37:22.527Z,11.70
2022-10-01T18:40:02.192Z,11.70
2022-10-01T18:42:33.930Z,11.70
2022-10-01T18:45:02.199Z,11.70
2022-10-01T18:47:28.912Z,11.60
2022-10-01T18:50:01.618Z,11.60
2022-10-01T18:52:35.011Z,11.50
2022-10-01T18:55:25.318Z,11.40
2022-10-01T18:57:58.453Z,11.40
2022-10-01T19:00:27.061Z,11.30
2022-10-01T19:03:13.010Z,11.20
2022-10-01T19:05:54.951Z,11.10
2022-10-01T19:08:42.068Z,11.00
2022-10-01T19:11:17.084Z,10.90
2022-10-01T19:13:56.936Z,10.90
2022-10-01T19:16:33.106Z,10.80
2022-10-01T19:19:11.475Z,10.70
2022-10-01T19:21:38.361Z,10.70
2022-10-01T19:24:07.784Z,10.80
2022-10-01T19:26:39.160Z,10.80
2022-10-01T19:29:21.574Z,10.80
2022-10-01T19:31:57.234Z,10.90
2022-10-01T19:34:30.261Z,11.00
2022-10-01T19:37:00.878Z,11.00
2022-10-01T19:39:33.156Z,11.10
2022-10-01T19:42:03.485Z,11.10
2022-10-01T19:44:51.604Z,11.10
2022-10-01T19:47:18.381Z,11.10
2022-10-01T19:49:46.270Z,11.10
2022-10-01T19:52:13.895Z,11.10
2022-10-01T19:54:47.008Z,11.10
2022-10-01T19:57:23.187Z,11.00
2022-10-01T19:59:54.068Z,10.90
2022-10-01T20:02:35.141Z,10.90
2022-10-01T20:05:04.840Z,10.80
2022-10-01T20:07:34.568Z,10.80
2022-10-01T20:10:05.764Z,10.70
2022-10-01T20:12:32.921Z,10.60
2022-10-01T20:15:14.642Z,10.50
2022-10-01T20:17:44.360Z,10.50
2022-10-01T20:20:21.260Z,10.50
2022-10-01T20:22:52.620Z,10.50
2022-10-01T20:25:24.003Z,10.50
2022-10-01T20:28:16.676Z,10.40
2022-10-01T20:31:10.247Z,10.40
2022-10-01T20:33:59.955Z,10.40
2022-10-01T20:36:42.342Z,10.40
2022-10-01T20:39:21.619Z,10.30
2022-10-01T20:41:49.734Z,10.30
2022-10-01T20:44:22.047Z,10.30
2022-10-01T20:46:50.827Z,10.30
2022-10-01T20:49:18.069Z,10.30
2022-10-01T20:51:58.290Z,10.30
2022-10-01T20:54:34.169Z,10.20
2022-10-01T20:57:12.715Z,10.20
2022-10-01T20:59:41.864Z,10.10
2022-10-01T21:02:22.757Z,10.10
2022-10-01T21:05:09.932Z,10.10
2022-10-01T21:07:51.889Z,10.10
2022-10-01T21:10:30.145Z,10.10
2022-10-01T21:13:25.668Z,10.10
2022-10-01T21:16:14.654Z,10.10
2022-10-01T21:19:00.263Z,10.10
2022-10-01T21:21:39.416Z,10.10
2022-10-01T21:24:25.953Z,10.10
2022-10-01T21:27:18.593Z,10.20
2022-10-01T21:30:16.978Z,10.20
2022-10-01T21:33:03.710Z,10.10
2022-10-01T21:35:53.088Z,10.00
2022-10-01T21:38:20.640Z,10.00
2022-10-01T21:40:52.369Z,9.90
2022-10-01T21:43:28.390Z,9.90
2022-10-01T21:46:13.618Z,9.80
2022-10-01T21:48:46.567Z,9.70
2022-10-01T21:51:16.277Z,9.60
2022-10-01T21:53:43.073Z,9.60
2022-10-01T21:56:12.745Z,9.60
2022-10-01T21:58:58.290Z,9.70
2022-10-01T22:01:48.694Z,9.60
2022-10-01T22:04:23.652Z,9.70
2022-10-01T22:07:02.640Z,9.70
2022-10-01T22:09:37.370Z,9.70
2022-10-01T22:12:06.028Z,9.80
2022-10-01T22:14:32.928Z,9.90
2022-10-01T22:17:14.820Z,10.00
2022-10-01T22:19:46.176Z,10.00
2022-10-01T22:22:17.402Z,10.10
2022-10-01T22:24:47.026Z,10.10
2022-10-01T22:27:20.089Z,10.20
2022-10-01T22:30:01.751Z,10.10
2022-10-01T22:32:33.170Z,10.10
2022-10-01T22:35:03.023Z,10.10
2022-10-01T22:37:37.108Z,10.20
2022-10-01T22:40:10.043Z,10.20
2022-10-01T22:42:42.892Z,10.20
2022-10-01T22:45:13.181Z,10.20
2022-10-01T22:47:44.102Z,10.10
2022-10-01T22:50:10.795Z,10.00
2022-10-01T22:52:52.673Z,9.90
2022-10-01T22:55:36.775Z,9.80
2022-10-01T22:58:12.926Z,9.70
2022-10-01T23:00:44.501Z,9.60
2022-10-01T23:03:14.471Z,9.60
2022-10-01T23:05:41.333Z,9.50
2022-10-01T23:08:20.948Z,9.50
2022-10-01T23:11:00.985Z,9.50
2022-10-01T23:13:33.711Z,9.50
2022-10-01T23:16:09.272Z,9.60
2022-10-01T23:18:35.964Z,9.70
2022-10-01T23:21:08.342Z,9.80
2022-10-01T23:23:35.324Z,9.90
2022-10-01T23:26:15.963Z,9.90
2022-10-01T23:29:01.732Z,10.00
2022-10-01T23:31:48.468Z,10.00
2022-10-01T23:34:25.946Z,10.00
2022-10-01T23:37:12.852Z,10.10
2022-10-01T23:40:00.037Z,10.10
2022-10-01T23:42:33.247Z,10.10
2022-10-01T23:45:08.784Z,10.00
2022-10-01T23:47:42.141Z,9.90
2022-10-01T23:50:17.584Z,9.90
2022-10-01T23:52:47.695Z,9.80
2022-10-01T23:55:34.799Z,9.80
2022-10-01T23:58:03.560Z,9.70
